KUNU/UNU METAR and TAF weather

Enter ICAO airport designator
Station Type Date Time Source
KUNU METAR 2019/08/19 02:15 UTC NOAA

KUNU 190215Z AUTO 00000KT 10SM CLR 18/17 A2989 RMK AO2 T01840172 TSNO


Station Type Date Time Source
KUNU Decoded METAR 2019/08/19 02:15 UTC NOAA

Station name not available
Aug 18, 2019 - 10:15 PM EDT / 2019.08.19 0215 UTC
Wind: Calm:0
Visibility: 10 mile(s):0
Sky conditions: clear
Temperature: 65.1 F (18.4 C)
Dew Point: 63.0 F (17.2 C)
Relative Humidity: 92%
Pressure (altimeter): 29.89 in. Hg (1012 hPa)
ob: KUNU 190215Z AUTO 00000KT 10SM CLR 18/17 A2989 RMK AO2 T01840172 TSNO
cycle: 2

Station Type Date Time Source
KUNU TAF UTC NOAA

Error!

Example: see airport list